Time;durP1;ratioP1;P1;durP2;ratioP2;P2;SDS_P1;SDS_P2;PMS_P1;PMS_P2;Temp;Humidity;BMP_temperature;BMP_pressure;BME280_temperature;BME280_humidity;BME280_pressure;Samples;Min_cycle;Max_cycle;Signal;HPM_P1;HPM_P2
2022/01/13 00:01:04;;;;;;;17.73;15.77;;;0.80;93.30;;;;;;4976384;28;20194;-88
2022/01/13 00:03:30;;;;;;;19.03;15.93;;;0.80;93.70;;;;;;4970812;28;20246;-89
2022/01/13 00:05:56;;;;;;;16.53;14.83;;;0.70;94.30;;;;;;4975091;28;20658;-89
2022/01/13 00:08:22;;;;;;;19.70;15.73;;;0.70;95.40;;;;;;4988104;28;20939;-88
2022/01/13 00:10:47;;;;;;;20.43;16.07;;;0.60;95.20;;;;;;4976437;28;20234;-88
2022/01/13 00:13:22;;;;;;;18.07;15.80;;;0.60;95.50;;;;;;4975970;28;20746;-89
2022/01/13 00:15:51;;;;;;;18.67;15.60;;;0.60;95.60;;;;;;4975430;28;20274;-90
2022/01/13 00:18:37;;;;;;;19.23;15.93;;;0.60;96.20;;;;;;4989439;28;20198;-89
2022/01/13 00:21:29;;;;;;;18.60;15.67;;;0.70;95.90;;;;;;4961360;28;20473;-90
2022/01/13 00:23:58;;;;;;;20.83;16.27;;;0.80;95.90;;;;;;4975063;28;20219;-89
2022/01/13 00:26:25;;;;;;;18.40;15.67;;;0.70;95.40;;;;;;4976813;28;20223;-89
2022/01/13 00:28:53;;;;;;;17.47;15.53;;;0.70;96.00;;;;;;4970693;28;20554;-89
2022/01/13 00:31:29;;;;;;;17.00;15.13;;;0.70;96.30;;;;;;4962431;28;20192;-90
2022/01/13 00:33:57;;;;;;;17.93;14.97;;;0.70;96.60;;;;;;4968586;28;20693;-89
2022/01/13 00:36:25;;;;;;;17.70;15.63;;;0.70;96.10;;;;;;4966658;28;20199;-89
2022/01/13 00:38:52;;;;;;;18.93;16.93;;;0.70;96.20;;;;;;4977527;28;20313;-89
2022/01/13 00:41:18;;;;;;;17.33;15.30;;;0.80;95.20;;;;;;4975378;28;20186;-88
2022/01/13 00:43:46;;;;;;;17.40;15.07;;;0.70;95.40;;;;;;4975186;28;20287;-88
2022/01/13 00:46:20;;;;;;;19.37;14.73;;;0.80;95.20;;;;;;4985201;28;20218;-88
2022/01/13 00:48:46;;;;;;;18.87;16.40;;;0.80;95.20;;;;;;5068339;28;20209;-89
2022/01/13 00:51:11;;;;;;;18.47;15.70;;;0.60;95.50;;;;;;4979741;28;20266;-89
2022/01/13 00:53:37;;;;;;;18.80;16.80;;;0.70;95.90;;;;;;4974741;28;20239;-88
2022/01/13 00:56:03;;;;;;;18.83;15.97;;;0.70;95.30;;;;;;4981495;28;20226;-88
2022/01/13 00:58:31;;;;;;;19.30;15.70;;;0.60;94.80;;;;;;4971755;28;20227;-88
2022/01/13 01:00:58;;;;;;;17.77;15.27;;;0.60;95.30;;;;;;4979930;28;20195;-88
2022/01/13 01:03:25;;;;;;;17.37;15.37;;;0.60;94.90;;;;;;4976459;28;20215;-88
2022/01/13 01:05:51;;;;;;;18.50;14.87;;;0.60;94.50;;;;;;4976551;28;20208;-89
2022/01/13 01:08:16;;;;;;;21.50;16.00;;;0.60;94.30;;;;;;4974759;28;20786;-89
2022/01/13 01:10:45;;;;;;;20.63;16.00;;;0.60;94.90;;;;;;4979709;28;20199;-88
2022/01/13 01:13:13;;;;;;;16.80;14.93;;;0.60;94.20;;;;;;5004612;28;20235;-88
2022/01/13 01:15:43;;;;;;;18.63;15.97;;;0.60;94.90;;;;;;5012082;28;20225;-89
2022/01/13 01:18:24;;;;;;;18.30;15.33;;;0.60;94.30;;;;;;4976670;28;20249;-89
2022/01/13 01:21:05;;;;;;;18.60;15.20;;;0.60;93.80;;;;;;4981453;28;20269;-89
2022/01/13 01:23:37;;;;;;;18.70;15.13;;;0.70;94.00;;;;;;4976228;28;20219;-89
2022/01/13 01:26:31;;;;;;;16.83;14.33;;;0.70;93.80;;;;;;4976906;28;20593;-88
2022/01/13 01:29:00;;;;;;;16.20;14.10;;;0.70;94.00;;;;;;4970280;28;20207;-89
2022/01/13 01:31:29;;;;;;;16.50;14.13;;;0.70;94.50;;;;;;4975386;28;20199;-89
2022/01/13 01:36:42;;;;;;;19.67;15.67;;;0.80;94.00;;;;;;5033231;28;20264;-88
2022/01/13 01:39:08;;;;;;;17.87;15.57;;;0.80;92.60;;;;;;5029237;28;20192;-88
2022/01/13 01:41:47;;;;;;;17.00;15.20;;;0.90;93.20;;;;;;4962419;28;20208;-89
2022/01/13 01:44:16;;;;;;;17.07;15.20;;;0.90;92.70;;;;;;4969747;28;20195;-88
2022/01/13 01:46:45;;;;;;;15.67;14.00;;;1.00;91.90;;;;;;5016150;28;20215;-88
2022/01/13 01:49:24;;;;;;;14.90;12.90;;;0.80;92.00;;;;;;4990276;28;20198;-88
2022/01/13 01:51:53;;;;;;;19.00;15.33;;;0.90;93.20;;;;;;4977183;28;20199;-88
2022/01/13 01:54:19;;;;;;;16.10;13.53;;;0.90;92.80;;;;;;4990843;28;20251;-89
2022/01/13 01:56:47;;;;;;;18.27;15.73;;;1.00;93.80;;;;;;4991147;28;20179;-87
2022/01/13 01:59:17;;;;;;;16.40;14.03;;;1.10;92.80;;;;;;4981841;28;20195;-87
2022/01/13 02:01:44;;;;;;;17.17;14.30;;;1.10;92.60;;;;;;4976089;28;20654;-88
2022/01/13 02:04:11;;;;;;;16.60;14.50;;;1.10;91.20;;;;;;4986126;28;20207;-88
2022/01/13 02:06:37;;;;;;;16.60;14.20;;;1.10;91.40;;;;;;4998550;28;20271;-87
2022/01/13 02:09:07;;;;;;;15.43;13.80;;;1.10;91.70;;;;;;4993745;28;20633;-88
2022/01/13 02:11:43;;;;;;;16.40;13.50;;;1.20;92.20;;;;;;5044724;28;20195;-89
2022/01/13 02:16:51;;;;;;;16.47;14.73;;;1.20;90.70;;;;;;4980488;28;20195;-89
2022/01/13 02:19:17;;;;;;;15.97;14.27;;;1.10;89.80;;;;;;5051863;28;20232;-89
2022/01/13 02:21:43;;;;;;;18.03;15.53;;;1.00;90.80;;;;;;5012602;28;20288;-89
2022/01/13 02:24:10;;;;;;;17.97;15.53;;;0.90;90.70;;;;;;4993691;28;20222;-89
2022/01/13 02:26:36;;;;;;;17.63;15.47;;;0.80;91.80;;;;;;4977419;28;20230;-90
2022/01/13 02:29:02;;;;;;;17.80;15.20;;;0.80;92.00;;;;;;4980983;28;20345;-89
2022/01/13 02:31:28;;;;;;;16.87;15.07;;;0.70;92.20;;;;;;4994160;28;20195;-89
2022/01/13 02:33:54;;;;;;;20.63;15.73;;;0.60;92.90;;;;;;4975637;28;20739;-88
2022/01/13 02:36:22;;;;;;;21.53;16.03;;;0.50;93.70;;;;;;4963533;28;20707;-89
2022/01/13 02:38:53;;;;;;;18.37;16.33;;;0.40;94.00;;;;;;4990927;28;20191;-88
2022/01/13 02:41:22;;;;;;;19.37;15.67;;;0.30;95.00;;;;;;4975964;28;20213;-89
2022/01/13 02:43:49;;;;;;;17.87;15.97;;;0.30;95.70;;;;;;4966137;28;20220;-89
2022/01/13 02:48:57;;;;;;;22.07;17.93;;;0.10;96.50;;;;;;5001239;28;20233;-89
2022/01/13 02:51:23;;;;;;;18.30;15.47;;;0.00;97.80;;;;;;4979177;28;20222;-89
2022/01/13 02:53:49;;;;;;;18.50;16.07;;;-0.10;98.60;;;;;;4981457;28;20681;-89
2022/01/13 02:56:14;;;;;;;20.30;16.23;;;0.00;98.50;;;;;;4977921;28;20214;-89
2022/01/13 02:58:41;;;;;;;18.23;16.33;;;0.00;98.30;;;;;;4975781;28;20233;-90
2022/01/13 03:01:07;;;;;;;19.43;16.73;;;-0.10;98.70;;;;;;4971813;28;20231;-89
2022/01/13 03:03:35;;;;;;;20.10;17.23;;;-0.10;99.40;;;;;;4992314;28;20277;-89
2022/01/13 03:06:09;;;;;;;18.53;16.50;;;-0.10;99.90;;;;;;4982118;28;20283;-89
2022/01/13 03:08:41;;;;;;;21.70;16.60;;;0.00;98.80;;;;;;4967454;28;20211;-89
2022/01/13 03:11:07;;;;;;;18.60;16.33;;;0.00;99.00;;;;;;4972756;28;20183;-89
2022/01/13 03:13:33;;;;;;;18.93;16.60;;;0.10;98.10;;;;;;4988520;28;20381;-90
2022/01/13 03:16:03;;;;;;;18.97;15.87;;;0.10;98.00;;;;;;4987871;28;20266;-89
2022/01/13 03:18:29;;;;;;;20.70;16.60;;;0.10;98.70;;;;;;4969697;28;20392;-89
2022/01/13 03:20:54;;;;;;;18.47;15.83;;;0.20;97.80;;;;;;4971772;28;20242;-89
2022/01/13 03:23:20;;;;;;;19.27;16.60;;;0.20;97.60;;;;;;4985625;28;20222;-89
2022/01/13 03:25:47;;;;;;;22.77;17.83;;;0.10;97.80;;;;;;4974215;28;20219;-89
2022/01/13 03:28:17;;;;;;;18.37;15.73;;;0.10;97.70;;;;;;4971900;28;20241;-89
2022/01/13 03:30:44;;;;;;;19.50;16.23;;;0.10;98.40;;;;;;4972003;28;20183;-89
2022/01/13 03:33:11;;;;;;;19.83;17.33;;;0.10;98.10;;;;;;4970922;28;20227;-88
2022/01/13 03:35:38;;;;;;;21.67;17.07;;;0.10;98.60;;;;;;4982659;28;20190;-89
2022/01/13 03:38:05;;;;;;;20.00;16.90;;;0.00;98.90;;;;;;4984445;28;20195;-89
2022/01/13 03:40:33;;;;;;;21.60;17.50;;;0.00;98.90;;;;;;4978496;28;20194;-89
2022/01/13 03:43:01;;;;;;;20.47;16.37;;;0.00;99.10;;;;;;5070628;28;20196;-89
2022/01/13 03:45:27;;;;;;;18.70;16.60;;;-0.10;99.90;;;;;;4971125;28;20195;-89
2022/01/13 03:47:54;;;;;;;19.43;16.13;;;0.00;99.50;;;;;;4986174;28;20260;-89
2022/01/13 03:50:20;;;;;;;18.87;16.60;;;0.00;99.90;;;;;;4990802;28;20190;-90
2022/01/13 03:52:57;;;;;;;20.70;17.63;;;0.10;98.70;;;;;;4985232;28;20215;-89
2022/01/13 03:55:38;;;;;;;21.83;18.93;;;0.00;98.70;;;;;;4992695;28;20214;-89
2022/01/13 03:58:28;;;;;;;22.77;19.23;;;0.00;99.40;;;;;;4987357;28;20227;-89
2022/01/13 04:01:31;;;;;;;21.97;17.07;;;0.00;99.40;;;;;;4979957;28;20211;-89
2022/01/13 04:03:57;;;;;;;22.77;16.77;;;-0.10;99.60;;;;;;4962136;28;20792;-89
2022/01/13 04:06:45;;;;;;;19.47;16.73;;;-0.10;99.90;;;;;;4989417;28;20214;-90
2022/01/13 04:09:50;;;;;;;21.60;18.03;;;-0.10;99.90;;;;;;4991074;28;20739;-89
2022/01/13 04:12:19;;;;;;;22.03;18.37;;;-0.10;99.90;;;;;;4997959;28;20202;-89
2022/01/13 04:14:49;;;;;;;19.10;16.23;;;0.00;99.60;;;;;;4979496;28;20199;-87
2022/01/13 04:17:20;;;;;;;19.57;16.73;;;-0.10;99.60;;;;;;5017407;28;20187;-90
2022/01/13 04:19:46;;;;;;;20.13;17.00;;;-0.10;99.80;;;;;;5027070;28;20237;-89
2022/01/13 04:22:14;;;;;;;20.80;18.07;;;-0.10;99.90;;;;;;5013624;28;20224;-89
2022/01/13 04:24:47;;;;;;;19.80;17.27;;;-0.20;99.90;;;;;;4980841;28;20278;-89
2022/01/13 04:27:29;;;;;;;22.33;17.77;;;-0.20;99.90;;;;;;4978341;28;20250;-89
2022/01/13 04:32:40;;;;;;;21.07;17.77;;;-0.20;99.90;;;;;;4997781;28;20226;-89
2022/01/13 04:35:07;;;;;;;21.17;17.63;;;-0.20;99.90;;;;;;4980533;28;20191;-90
2022/01/13 04:37:32;;;;;;;21.10;17.33;;;-0.20;99.90;;;;;;4983225;28;20211;-89
2022/01/13 04:39:58;;;;;;;20.27;17.03;;;-0.20;99.90;;;;;;4996578;28;20207;-88
2022/01/13 04:42:26;;;;;;;21.10;17.03;;;-0.20;99.90;;;;;;5016736;28;20217;-86
2022/01/13 04:44:52;;;;;;;22.13;18.60;;;-0.10;99.90;;;;;;4974327;28;20184;-89
2022/01/13 04:47:18;;;;;;;20.90;18.00;;;-0.10;99.90;;;;;;4973916;28;20223;-89
2022/01/13 04:49:43;;;;;;;20.40;15.97;;;0.00;99.90;;;;;;4954579;28;20226;-89
2022/01/13 04:52:09;;;;;;;17.87;15.47;;;0.00;99.90;;;;;;4977334;28;20212;-88
2022/01/13 04:54:35;;;;;;;19.10;16.57;;;0.10;99.90;;;;;;4989101;28;20207;-89
2022/01/13 04:59:29;;;;;;;17.47;15.23;;;0.20;99.90;;;;;;5001509;28;20279;-88
2022/01/13 05:01:55;;;;;;;20.33;16.97;;;0.30;99.70;;;;;;5014055;28;20187;-88
2022/01/13 05:04:21;;;;;;;19.03;15.60;;;0.30;97.90;;;;;;4996510;28;20236;-88
2022/01/13 05:06:47;;;;;;;22.27;19.30;;;0.20;97.10;;;;;;4980148;28;20210;-89
2022/01/13 05:09:13;;;;;;;19.27;16.33;;;0.20;97.40;;;;;;5046816;28;20274;-90
2022/01/13 05:11:38;;;;;;;18.50;15.80;;;0.10;97.50;;;;;;5020946;28;20191;-89
2022/01/13 05:14:04;;;;;;;21.00;17.63;;;0.00;98.70;;;;;;5008020;28;20287;-90
2022/01/13 05:16:57;;;;;;;19.73;17.20;;;-0.10;98.30;;;;;;4979569;28;20195;-90
2022/01/13 05:19:28;;;;;;;18.87;16.57;;;-0.10;99.40;;;;;;4978116;28;20203;-90
2022/01/13 05:24:20;;;;;;;16.87;14.63;;;0.00;99.90;;;;;;4978055;28;20208;-88
2022/01/13 05:26:46;;;;;;;17.73;15.70;;;0.10;99.90;;;;;;5004707;28;20228;-89
2022/01/13 05:29:17;;;;;;;17.47;15.47;;;0.20;99.90;;;;;;4968822;28;20271;-89
2022/01/13 05:31:43;;;;;;;17.97;16.07;;;0.30;97.90;;;;;;4975698;28;20188;-87
2022/01/13 05:34:10;;;;;;;16.03;13.93;;;0.40;98.80;;;;;;5006226;28;20663;-89
2022/01/13 05:36:36;;;;;;;17.33;15.50;;;0.30;97.70;;;;;;4972636;28;20192;-88
2022/01/13 05:39:02;;;;;;;19.33;17.23;;;0.20;97.60;;;;;;4971696;28;20237;-88
2022/01/13 05:41:28;;;;;;;19.13;15.30;;;0.30;97.50;;;;;;4968161;28;20179;-88
2022/01/13 05:43:54;;;;;;;17.67;15.77;;;0.30;98.20;;;;;;4974022;28;20260;-87
2022/01/13 05:46:19;;;;;;;16.00;14.40;;;0.40;97.30;;;;;;4968839;28;20438;-86
2022/01/13 05:48:45;;;;;;;18.10;16.30;;;0.50;97.50;;;;;;4965495;28;20202;-88
2022/01/13 05:51:11;;;;;;;18.93;16.73;;;0.50;95.70;;;;;;4969246;28;20199;-88
2022/01/13 05:53:36;;;;;;;17.60;14.77;;;0.50;96.20;;;;;;4968343;28;20274;-90
2022/01/13 05:56:02;;;;;;;19.63;15.40;;;0.50;96.90;;;;;;4965939;28;20187;-88
2022/01/13 05:58:28;;;;;;;18.53;16.03;;;0.60;96.80;;;;;;4969464;28;20476;-88
2022/01/13 06:00:54;;;;;;;17.80;15.33;;;0.60;96.50;;;;;;4974650;28;20198;-88
2022/01/13 06:03:20;;;;;;;17.43;15.57;;;0.60;96.20;;;;;;4970022;28;20631;-88
2022/01/13 06:05:46;;;;;;;20.30;16.60;;;0.70;96.10;;;;;;4962680;28;20219;-87
2022/01/13 06:08:12;;;;;;;17.77;15.53;;;0.60;94.40;;;;;;4972776;28;20187;-88
2022/01/13 06:10:42;;;;;;;20.83;16.47;;;0.60;95.20;;;;;;4968917;28;20191;-89
2022/01/13 06:13:08;;;;;;;19.07;16.37;;;0.60;95.70;;;;;;4963946;28;20220;-89
2022/01/13 06:15:37;;;;;;;22.13;17.57;;;0.60;95.80;;;;;;4964961;28;20192;-89
2022/01/13 06:18:03;;;;;;;18.77;16.77;;;0.60;95.30;;;;;;4973350;28;20648;-87
2022/01/13 06:20:29;;;;;;;17.90;16.10;;;0.40;94.50;;;;;;4963107;28;20250;-88
2022/01/13 06:22:57;;;;;;;20.93;17.27;;;0.40;95.50;;;;;;4970163;28;20199;-89
2022/01/13 06:25:23;;;;;;;20.53;15.63;;;0.30;96.00;;;;;;4972664;28;20206;-88
2022/01/13 06:27:49;;;;;;;19.83;17.73;;;0.20;95.00;;;;;;4965031;28;20187;-88
2022/01/13 06:30:16;;;;;;;18.83;16.17;;;0.10;96.20;;;;;;4962972;28;20191;-89
2022/01/13 06:32:43;;;;;;;21.90;17.90;;;0.00;97.20;;;;;;4968825;28;20190;-90
2022/01/13 06:35:10;;;;;;;19.10;16.97;;;0.00;97.40;;;;;;4966741;28;20192;-89
2022/01/13 06:37:36;;;;;;;20.90;16.67;;;-0.10;98.20;;;;;;4966394;28;20199;-87
2022/01/13 06:40:03;;;;;;;22.40;18.77;;;-0.10;97.80;;;;;;4979375;28;20290;-88
2022/01/13 06:42:29;;;;;;;20.03;17.10;;;-0.20;98.40;;;;;;4970110;28;20647;-87
2022/01/13 06:44:55;;;;;;;21.17;18.33;;;-0.30;99.20;;;;;;4981151;28;20188;-87
2022/01/13 06:47:21;;;;;;;20.97;17.67;;;-0.40;99.90;;;;;;4974103;28;20207;-87
2022/01/13 06:49:46;;;;;;;19.97;16.57;;;-0.40;99.90;;;;;;5001524;28;20226;-88
2022/01/13 06:52:13;;;;;;;20.47;17.83;;;-0.40;99.90;;;;;;4966114;28;20306;-85
2022/01/13 06:54:39;;;;;;;20.60;15.83;;;-0.30;99.90;;;;;;4972816;28;20187;-87
2022/01/13 06:57:05;;;;;;;18.80;16.90;;;-0.30;99.90;;;;;;4997533;28;20531;-87
2022/01/13 06:59:31;;;;;;;21.40;18.03;;;-0.20;99.90;;;;;;4962292;28;20195;-88
2022/01/13 07:02:00;;;;;;;22.13;18.50;;;-0.20;99.90;;;;;;4964644;28;20203;-87
2022/01/13 07:04:26;;;;;;;23.50;20.30;;;-0.20;99.90;;;;;;4969652;28;20278;-88
2022/01/13 07:06:52;;;;;;;21.07;16.57;;;-0.20;99.50;;;;;;4974932;28;20214;-87
2022/01/13 07:09:18;;;;;;;22.03;18.97;;;-0.20;99.90;;;;;;4959619;28;20203;-89
2022/01/13 07:11:45;;;;;;;23.67;20.97;;;-0.10;99.80;;;;;;4968902;28;20183;-87
2022/01/13 07:14:11;;;;;;;37.13;29.97;;;-0.20;99.60;;;;;;4962546;28;20202;-88
2022/01/13 07:16:38;;;;;;;25.20;20.90;;;-0.20;99.90;;;;;;4970796;28;20191;-87
2022/01/13 07:19:04;;;;;;;28.70;24.43;;;-0.10;99.90;;;;;;4961733;28;20191;-89
2022/01/13 07:21:31;;;;;;;24.97;21.47;;;-0.10;99.90;;;;;;4984881;28;20218;-90
2022/01/13 07:23:57;;;;;;;26.17;21.07;;;-0.20;99.90;;;;;;4974283;28;20690;-89
2022/01/13 07:26:23;;;;;;;28.37;21.53;;;-0.20;99.90;;;;;;4962441;28;20250;-88
2022/01/13 07:28:48;;;;;;;22.73;18.03;;;-0.10;99.90;;;;;;4984238;28;20198;-86
2022/01/13 07:31:15;;;;;;;25.20;19.30;;;0.00;99.90;;;;;;4983414;28;20250;-88
2022/01/13 07:33:44;;;;;;;28.53;22.00;;;-0.10;99.90;;;;;;4973423;28;20211;-89
2022/01/13 07:36:10;;;;;;;30.77;22.43;;;-0.10;99.90;;;;;;4987757;28;20195;-89
2022/01/13 07:38:35;;;;;;;27.23;19.87;;;-0.10;99.90;;;;;;4984076;28;20276;-86
2022/01/13 07:41:01;;;;;;;29.80;21.97;;;-0.20;99.90;;;;;;4993249;28;20202;-88
2022/01/13 07:43:27;;;;;;;29.03;20.83;;;-0.10;99.90;;;;;;4968045;28;20466;-88
2022/01/13 07:45:53;;;;;;;30.90;23.37;;;-0.10;99.90;;;;;;4972783;28;20219;-89
2022/01/13 07:48:20;;;;;;;30.10;21.23;;;-0.10;99.90;;;;;;4971245;28;20679;-87
2022/01/13 07:50:47;;;;;;;29.73;21.00;;;-0.10;99.90;;;;;;4998070;28;20195;-87
2022/01/13 07:53:13;;;;;;;27.70;21.43;;;-0.20;99.90;;;;;;4979254;28;20630;-89
2022/01/13 07:55:39;;;;;;;31.77;21.73;;;-0.10;99.90;;;;;;4973360;28;20237;-87
2022/01/13 07:58:05;;;;;;;30.93;21.73;;;-0.10;99.90;;;;;;4971265;28;20218;-89
2022/01/13 08:00:31;;;;;;;33.07;23.53;;;-0.20;99.90;;;;;;4969212;28;20579;-89
2022/01/13 08:02:57;;;;;;;29.63;21.67;;;-0.20;99.90;;;;;;4975411;28;20207;-89
2022/01/13 08:05:22;;;;;;;26.73;20.53;;;-0.20;99.90;;;;;;4973649;28;20206;-89
2022/01/13 08:07:48;;;;;;;27.40;20.20;;;-0.20;99.90;;;;;;4964181;28;20223;-89
2022/01/13 08:10:14;;;;;;;29.63;21.97;;;-0.20;99.90;;;;;;4972968;28;20191;-89
2022/01/13 08:12:40;;;;;;;28.40;20.07;;;-0.10;99.90;;;;;;4974037;28;20251;-88
2022/01/13 08:15:09;;;;;;;30.30;21.53;;;-0.10;99.90;;;;;;4979582;28;20709;-89
2022/01/13 08:20:19;;;;;;;28.50;20.67;;;-0.20;99.90;;;;;;4977982;28;20403;-89
2022/01/13 08:22:45;;;;;;;22.87;19.93;;;-0.10;99.90;;;;;;4965432;28;20222;-89
2022/01/13 08:25:11;;;;;;;23.07;19.73;;;0.00;99.90;;;;;;4970994;28;20239;-89
2022/01/13 08:27:37;;;;;;;23.83;20.07;;;0.00;99.90;;;;;;4970684;28;20283;-88
2022/01/13 08:30:05;;;;;;;24.70;20.40;;;0.00;99.90;;;;;;4965885;28;20188;-89
2022/01/13 08:32:31;;;;;;;26.63;20.47;;;0.00;99.90;;;;;;4993120;28;20304;-87
2022/01/13 08:34:56;;;;;;;26.87;20.43;;;0.10;99.90;;;;;;4988443;28;20249;-89
2022/01/13 08:37:22;;;;;;;24.77;19.47;;;0.20;99.90;;;;;;4969198;28;20206;-88
2022/01/13 08:39:48;;;;;;;22.93;19.20;;;0.30;99.90;;;;;;4978514;28;21026;-89
2022/01/13 08:42:14;;;;;;;23.37;19.13;;;0.40;99.90;;;;;;4964782;28;20225;-89
2022/01/13 08:44:40;;;;;;;21.77;18.67;;;0.50;99.90;;;;;;4966871;28;20196;-90
2022/01/13 08:47:07;;;;;;;26.17;22.77;;;0.50;99.90;;;;;;4992114;28;20223;-90
2022/01/13 08:49:33;;;;;;;25.17;20.47;;;0.50;99.60;;;;;;4986190;28;20198;-89
2022/01/13 08:52:00;;;;;;;25.17;19.30;;;0.50;98.50;;;;;;4976493;28;20681;-89
2022/01/13 08:54:26;;;;;;;23.93;18.50;;;0.50;98.70;;;;;;5012598;28;20232;-90
2022/01/13 08:56:51;;;;;;;27.00;23.10;;;0.50;99.50;;;;;;4987318;28;20674;-90
2022/01/13 08:59:18;;;;;;;25.67;20.87;;;0.60;98.50;;;;;;4980603;28;20768;-88
2022/01/13 09:01:44;;;;;;;30.90;25.13;;;0.60;98.60;;;;;;4967123;28;20203;-90
2022/01/13 09:04:09;;;;;;;30.57;22.87;;;0.60;99.20;;;;;;4991611;28;20214;-91
2022/01/13 09:06:35;;;;;;;38.27;23.83;;;0.70;99.10;;;;;;4969093;28;20212;-90
2022/01/13 09:09:00;;;;;;;33.40;23.13;;;0.70;98.40;;;;;;4978631;28;20212;-91
2022/01/13 09:11:28;;;;;;;27.77;22.47;;;0.80;98.00;;;;;;4987259;28;20195;-91
2022/01/13 09:13:58;;;;;;;31.33;24.00;;;0.80;97.60;;;;;;4975322;28;20219;-91
2022/01/13 09:16:30;;;;;;;31.20;24.97;;;0.80;97.70;;;;;;4979702;28;20211;-90
2022/01/13 09:21:22;;;;;;;36.57;26.07;;;0.90;97.30;;;;;;4978974;28;20191;-91
2022/01/13 09:23:49;;;;;;;28.73;23.00;;;0.90;97.40;;;;;;4977366;28;20670;-90
2022/01/13 09:26:15;;;;;;;25.00;20.93;;;1.00;97.40;;;;;;4973315;28;20838;-91
2022/01/13 09:28:41;;;;;;;25.30;21.50;;;1.00;96.50;;;;;;4966114;28;20187;-91
2022/01/13 09:31:07;;;;;;;27.10;20.40;;;1.10;96.70;;;;;;5020917;28;20244;-91
2022/01/13 09:33:33;;;;;;;22.70;19.27;;;1.00;96.50;;;;;;4995562;28;20724;-90
2022/01/13 09:35:59;;;;;;;26.47;21.53;;;1.00;96.90;;;;;;4983941;28;20342;-91
2022/01/13 09:38:25;;;;;;;24.23;21.57;;;1.10;97.30;;;;;;5009991;28;20670;-90
2022/01/13 09:40:53;;;;;;;25.03;20.13;;;1.20;97.70;;;;;;5020928;28;20184;-89
2022/01/13 09:43:23;;;;;;;21.07;18.47;;;1.30;97.00;;;;;;4973714;28;20217;-90
2022/01/13 09:45:50;;;;;;;20.87;18.53;;;1.30;96.50;;;;;;4980299;28;20219;-90
2022/01/13 09:48:16;;;;;;;19.90;17.80;;;1.40;96.90;;;;;;4967051;28;20203;-90
2022/01/13 09:50:45;;;;;;;22.53;18.13;;;1.50;96.00;;;;;;4987751;28;20192;-90
2022/01/13 09:53:12;;;;;;;20.07;17.67;;;1.50;96.10;;;;;;4996946;28;20221;-89
2022/01/13 09:55:39;;;;;;;19.37;16.33;;;1.70;95.90;;;;;;4979838;28;20218;-89
2022/01/13 09:58:10;;;;;;;19.00;16.77;;;1.80;95.40;;;;;;4982371;28;20795;-90
2022/01/13 10:00:38;;;;;;;19.43;17.27;;;1.90;94.90;;;;;;4989023;28;20184;-90
2022/01/13 10:03:22;;;;;;;22.90;18.57;;;2.00;94.50;;;;;;4971713;28;20538;-90
2022/01/13 10:05:54;;;;;;;20.77;17.20;;;2.10;94.30;;;;;;4988447;28;20244;-90
2022/01/13 10:08:41;;;;;;;21.87;18.27;;;2.20;93.30;;;;;;4986944;28;20234;-90
2022/01/13 10:11:40;;;;;;;19.20;17.13;;;2.30;93.90;;;;;;4988153;28;20186;-90
2022/01/13 10:16:54;;;;;;;19.73;15.63;;;2.60;92.20;;;;;;4981029;28;20196;-89
2022/01/13 10:19:35;;;;;;;21.37;17.67;;;2.80;91.40;;;;;;5001075;28;20191;-89
2022/01/13 10:22:03;;;;;;;19.57;17.57;;;2.90;90.70;;;;;;4996726;28;20189;-90
2022/01/13 10:24:30;;;;;;;20.13;16.57;;;3.10;89.90;;;;;;5012972;28;20214;-90
2022/01/13 10:27:18;;;;;;;19.53;16.77;;;3.20;88.70;;;;;;4980556;28;20211;-90
2022/01/13 10:29:55;;;;;;;22.00;15.90;;;3.40;88.20;;;;;;4978141;28;20234;-89
2022/01/13 10:32:22;;;;;;;17.17;14.80;;;3.40;87.90;;;;;;4998654;28;20202;-87
2022/01/13 10:34:56;;;;;;;16.73;14.87;;;3.70;86.00;;;;;;4972568;28;20187;-86
2022/01/13 10:37:30;;;;;;;18.43;15.57;;;3.70;86.30;;;;;;4992035;28;20255;-88
2022/01/13 10:40:09;;;;;;;17.23;15.03;;;3.90;85.90;;;;;;4971827;28;20195;-88
2022/01/13 10:45:23;;;;;;;15.83;13.90;;;4.10;84.80;;;;;;5013742;28;20188;-87
2022/01/13 10:47:51;;;;;;;17.53;14.33;;;4.10;85.20;;;;;;4978491;28;20207;-86
2022/01/13 10:50:17;;;;;;;19.97;15.87;;;4.20;84.40;;;;;;4985171;28;20195;-87
2022/01/13 10:52:43;;;;;;;18.07;16.07;;;4.30;84.20;;;;;;5003979;28;20199;-88
2022/01/13 10:55:14;;;;;;;19.67;16.83;;;4.40;83.60;;;;;;5016046;28;20194;-86
2022/01/13 10:57:42;;;;;;;28.20;20.80;;;4.40;83.50;;;;;;4977214;28;20214;-88
2022/01/13 11:00:17;;;;;;;21.43;18.03;;;4.50;83.50;;;;;;4993748;28;20191;-88
2022/01/13 11:02:58;;;;;;;19.57;16.80;;;4.60;83.40;;;;;;4978807;28;20224;-87
2022/01/13 11:05:24;;;;;;;16.07;14.40;;;4.60;82.80;;;;;;4982932;28;20196;-88
2022/01/13 11:07:50;;;;;;;21.10;16.10;;;4.60;83.30;;;;;;4971813;28;20214;-88
2022/01/13 11:10:16;;;;;;;17.77;15.50;;;4.80;82.30;;;;;;4977140;28;20191;-85
2022/01/13 11:12:44;;;;;;;18.67;14.70;;;4.90;81.90;;;;;;4981330;28;20245;-88
2022/01/13 11:15:17;;;;;;;16.77;15.07;;;5.00;81.30;;;;;;4985966;28;20199;-87
2022/01/13 11:17:45;;;;;;;16.57;14.80;;;4.90;81.60;;;;;;4967936;28;20184;-88
2022/01/13 11:20:19;;;;;;;16.57;14.97;;;5.00;81.20;;;;;;4967831;28;20203;-85
2022/01/13 11:22:47;;;;;;;18.63;15.50;;;5.20;80.30;;;;;;4979182;28;20236;-88
2022/01/13 11:25:15;;;;;;;18.17;15.77;;;5.30;79.90;;;;;;4971339;28;20198;-88
2022/01/13 11:27:41;;;;;;;17.60;15.03;;;5.30;80.10;;;;;;4968886;28;20211;-87
2022/01/13 11:30:15;;;;;;;18.13;16.17;;;5.40;78.90;;;;;;4975898;28;20191;-88
2022/01/13 11:32:42;;;;;;;17.60;15.80;;;5.40;78.80;;;;;;4973112;28;20212;-88
2022/01/13 11:35:14;;;;;;;19.23;16.33;;;5.50;78.30;;;;;;4972850;28;20202;-88
2022/01/13 11:37:40;;;;;;;18.30;15.43;;;5.70;77.90;;;;;;4997186;28;20195;-88
2022/01/13 11:40:14;;;;;;;18.50;16.60;;;5.70;77.30;;;;;;5007527;28;20199;-88
2022/01/13 11:42:46;;;;;;;17.97;14.33;;;5.80;76.90;;;;;;5007737;28;20242;-87
2022/01/13 11:45:14;;;;;;;19.87;14.90;;;6.00;76.00;;;;;;5011580;28;20210;-88
2022/01/13 11:47:41;;;;;;;20.03;16.27;;;6.10;75.40;;;;;;5000107;28;20211;-87
2022/01/13 11:50:31;;;;;;;16.87;14.70;;;6.10;75.30;;;;;;4993831;28;20222;-87
2022/01/13 11:52:58;;;;;;;16.90;14.27;;;6.30;75.10;;;;;;4977687;28;20793;-86
2022/01/13 11:55:26;;;;;;;16.47;14.77;;;6.60;72.80;;;;;;5001333;28;20183;-88
2022/01/13 11:58:12;;;;;;;16.77;13.47;;;6.50;72.80;;;;;;4987431;28;20217;-87
2022/01/13 12:00:38;;;;;;;18.73;14.43;;;6.40;72.70;;;;;;4979301;28;20250;-87
2022/01/13 12:03:24;;;;;;;16.97;15.27;;;6.60;72.90;;;;;;4975164;28;20230;-88
2022/01/13 12:05:49;;;;;;;15.20;13.60;;;6.70;71.20;;;;;;4987448;28;20199;-88
2022/01/13 12:08:35;;;;;;;16.53;14.83;;;6.70;71.20;;;;;;4996619;28;20187;-88
2022/01/13 12:11:01;;;;;;;15.17;13.57;;;6.70;71.40;;;;;;5004664;28;20616;-87
2022/01/13 12:13:36;;;;;;;15.30;13.80;;;6.90;70.00;;;;;;4974151;28;20275;-90
2022/01/13 12:16:04;;;;;;;17.03;15.33;;;7.00;69.80;;;;;;4978126;28;20206;-87
2022/01/13 12:19:12;;;;;;;15.53;13.97;;;7.00;69.30;;;;;;4981619;28;20666;-88
2022/01/13 12:22:01;;;;;;;15.60;14.00;;;7.20;69.20;;;;;;4977052;28;20207;-86
2022/01/13 12:24:57;;;;;;;16.33;14.60;;;7.50;67.50;;;;;;4992257;28;20697;-86
2022/01/13 12:27:24;;;;;;;16.17;14.47;;;7.50;66.60;;;;;;4984314;28;20223;-86
2022/01/13 12:30:11;;;;;;;16.80;15.10;;;7.80;66.70;;;;;;5018532;28;20199;-87
2022/01/13 12:32:55;;;;;;;15.53;14.03;;;8.20;65.90;;;;;;4994261;28;20203;-86
2022/01/13 12:35:21;;;;;;;15.40;13.83;;;8.30;64.10;;;;;;4993859;28;20250;-86
2022/01/13 12:37:59;;;;;;;15.47;13.87;;;8.00;64.80;;;;;;5020667;28;20197;-86
2022/01/13 12:40:25;;;;;;;17.10;14.50;;;8.00;65.50;;;;;;4979133;28;20256;-86
2022/01/13 12:42:53;;;;;;;16.03;14.37;;;8.20;64.60;;;;;;5018861;28;20219;-86
2022/01/13 12:45:28;;;;;;;17.53;14.90;;;8.20;64.50;;;;;;5011267;28;20199;-87
2022/01/13 12:47:58;;;;;;;16.23;14.67;;;8.30;64.50;;;;;;5034063;28;20657;-88
2022/01/13 12:50:28;;;;;;;20.60;18.50;;;8.10;63.80;;;;;;4987875;28;20228;-87
2022/01/13 12:58:05;;;;;;;15.50;14.07;;;8.20;63.70;;;;;;4748443;22;20262;-88
2022/01/13 13:00:35;;;;;;;15.33;13.90;;;7.90;64.80;;;;;;5121334;28;20207;-91
2022/01/13 13:09:34;;;;;;;14.63;13.23;;;7.40;67.10;;;;;;5079722;28;20255;-89
2022/01/13 13:12:27;;;;;;;15.47;13.97;;;7.00;69.30;;;;;;5096599;28;20721;-87
2022/01/13 13:18:22;;;;;;;14.00;12.70;;;7.00;69.70;;;;;;5040449;28;20189;-88
2022/01/13 13:20:54;;;;;;;14.67;13.27;;;6.90;70.00;;;;;;5104973;28;20232;-89
2022/01/13 13:26:59;;;;;;;14.63;13.23;;;6.80;70.60;;;;;;5101737;28;20234;-89
2022/01/13 13:29:40;;;;;;;15.07;11.87;;;6.80;70.90;;;;;;5083363;28;20191;-88
2022/01/13 13:32:26;;;;;;;13.63;12.27;;;6.70;71.20;;;;;;5085228;28;20193;-88